Time;durP1;ratioP1;P1;durP2;ratioP2;P2;SDS_P1;SDS_P2;PMS_P1;PMS_P2;Temp;Humidity;BMP_temperature;BMP_pressure;BME280_temperature;BME280_humidity;BME280_pressure;Samples;Min_cycle;Max_cycle;Signal;HPM_P1;HPM_P2
2021/09/07 00:02:12;;;;;;;31.07;24.93;;;;;;;;;;5012262;28;20428;-70
2021/09/07 00:04:38;;;;;;;30.33;25.10;;;;;;;;;;5022703;28;20943;-71
2021/09/07 00:07:05;;;;;;;33.13;25.00;;;;;;;;;;5015758;28;20506;-71
2021/09/07 00:09:31;;;;;;;31.50;23.10;;;;;;;;;;5015615;28;20467;-70
2021/09/07 00:11:57;;;;;;;32.30;25.40;;;;;;;;;;5025135;28;20423;-72
2021/09/07 00:14:23;;;;;;;31.93;24.97;;;;;;;;;;5024993;28;20438;-72
2021/09/07 00:16:49;;;;;;;38.17;27.10;;;;;;;;;;5036763;28;20551;-72
2021/09/07 00:19:15;;;;;;;34.83;26.87;;;;;;;;;;5019996;28;20503;-70
2021/09/07 00:21:41;;;;;;;34.40;26.50;;;;;;;;;;5017975;28;20420;-74
2021/09/07 00:24:07;;;;;;;37.67;26.77;;;;;;;;;;5015610;28;20771;-71
2021/09/07 00:26:33;;;;;;;35.33;27.60;;;;;;;;;;5015558;28;20417;-72
2021/09/07 00:28:59;;;;;;;36.40;26.40;;;;;;;;;;5019647;28;20520;-72
2021/09/07 00:31:25;;;;;;;33.50;25.87;;;;;;;;;;5019396;28;20503;-74
2021/09/07 00:33:51;;;;;;;34.47;25.93;;;;;;;;;;5030397;28;20420;-70
2021/09/07 00:36:17;;;;;;;34.50;26.67;;;;;;;;;;5015178;28;20434;-73
2021/09/07 00:38:43;;;;;;;40.87;26.70;;;;;;;;;;5022962;28;20814;-70
2021/09/07 00:41:09;;;;;;;30.83;24.13;;;;;;;;;;5017410;28;20451;-72
2021/09/07 00:43:35;;;;;;;30.43;24.20;;;;;;;;;;5013567;28;20926;-73
2021/09/07 00:46:01;;;;;;;30.17;22.97;;;;;;;;;;5016657;28;20429;-70
2021/09/07 00:48:27;;;;;;;28.23;23.77;;;;;;;;;;5027291;28;20495;-71
2021/09/07 00:50:53;;;;;;;32.53;22.57;;;;;;;;;;5014563;28;21011;-70
2021/09/07 00:53:19;;;;;;;30.90;22.93;;;;;;;;;;5038972;28;20412;-72
2021/09/07 00:55:46;;;;;;;28.07;22.80;;;;;;;;;;5014946;28;20406;-69
2021/09/07 00:58:15;;;;;;;26.67;21.90;;;;;;;;;;5012992;28;20949;-71
2021/09/07 01:00:42;;;;;;;28.00;22.20;;;;;;;;;;5014675;28;20886;-72
2021/09/07 01:03:08;;;;;;;29.43;23.30;;;;;;;;;;5014619;28;20456;-72
2021/09/07 01:05:35;;;;;;;27.37;21.77;;;;;;;;;;5024090;28;20469;-73
2021/09/07 01:08:01;;;;;;;28.23;21.80;;;;;;;;;;5014403;28;20440;-69
2021/09/07 01:10:27;;;;;;;25.73;21.43;;;;;;;;;;5014614;28;20460;-74
2021/09/07 01:12:54;;;;;;;32.57;21.73;;;;;;;;;;5014431;28;20921;-72
2021/09/07 01:15:21;;;;;;;28.60;20.87;;;;;;;;;;5014617;28;20897;-71
2021/09/07 01:17:47;;;;;;;28.27;21.03;;;;;;;;;;5014124;28;20427;-73
2021/09/07 01:20:13;;;;;;;28.03;21.53;;;;;;;;;;5014380;28;20416;-70
2021/09/07 01:22:39;;;;;;;23.87;20.67;;;;;;;;;;5014477;28;20470;-69
2021/09/07 01:25:05;;;;;;;26.10;20.87;;;;;;;;;;5014136;28;20448;-70
2021/09/07 01:27:31;;;;;;;32.93;20.70;;;;;;;;;;5014194;28;20416;-72
2021/09/07 01:29:57;;;;;;;27.10;20.87;;;;;;;;;;5026960;28;20467;-71
2021/09/07 01:32:24;;;;;;;26.57;21.07;;;;;;;;;;5013321;28;20419;-72
2021/09/07 01:34:50;;;;;;;26.23;20.10;;;;;;;;;;5014078;28;20554;-71
2021/09/07 01:37:16;;;;;;;25.43;19.10;;;;;;;;;;5033732;28;20448;-73
2021/09/07 01:39:42;;;;;;;25.33;19.40;;;;;;;;;;5032491;28;20482;-72
2021/09/07 01:42:08;;;;;;;25.87;21.10;;;;;;;;;;5042739;28;20748;-73
2021/09/07 01:44:34;;;;;;;26.73;19.77;;;;;;;;;;5014045;28;20421;-72
2021/09/07 01:47:01;;;;;;;24.60;18.70;;;;;;;;;;5013485;28;20417;-71
2021/09/07 01:49:27;;;;;;;26.10;20.20;;;;;;;;;;5013877;28;20815;-70
2021/09/07 01:51:53;;;;;;;26.43;19.77;;;;;;;;;;5014169;28;20412;-72
2021/09/07 01:54:21;;;;;;;23.60;18.70;;;;;;;;;;5013989;28;20420;-72
2021/09/07 01:56:47;;;;;;;23.90;20.10;;;;;;;;;;5013740;28;20513;-74
2021/09/07 01:59:13;;;;;;;25.20;19.20;;;;;;;;;;5013627;28;20447;-72
2021/09/07 02:01:39;;;;;;;25.67;18.20;;;;;;;;;;5013212;28;20420;-72
2021/09/07 02:04:05;;;;;;;25.53;20.03;;;;;;;;;;5013592;28;20432;-72
2021/09/07 02:06:31;;;;;;;23.63;17.87;;;;;;;;;;5013809;28;20443;-72
2021/09/07 02:08:57;;;;;;;25.30;20.03;;;;;;;;;;5013291;28;20464;-74
2021/09/07 02:11:23;;;;;;;23.40;19.03;;;;;;;;;;5013541;28;20420;-72
2021/09/07 02:13:49;;;;;;;21.73;18.57;;;;;;;;;;5013686;28;20419;-73
2021/09/07 02:16:15;;;;;;;25.67;20.33;;;;;;;;;;5013656;28;20768;-72
2021/09/07 02:18:41;;;;;;;25.97;19.00;;;;;;;;;;5013142;28;20431;-72
2021/09/07 02:21:07;;;;;;;26.60;18.37;;;;;;;;;;5013519;28;20932;-74
2021/09/07 02:23:33;;;;;;;23.20;18.97;;;;;;;;;;5013532;28;20447;-71
2021/09/07 02:25:59;;;;;;;23.33;19.37;;;;;;;;;;5013445;28;20490;-70
2021/09/07 02:28:25;;;;;;;24.47;20.10;;;;;;;;;;5013099;28;20432;-72
2021/09/07 02:30:51;;;;;;;24.23;18.93;;;;;;;;;;5028559;28;20541;-70
2021/09/07 02:33:17;;;;;;;26.70;20.60;;;;;;;;;;5013335;28;20485;-73
2021/09/07 02:35:43;;;;;;;22.90;18.90;;;;;;;;;;5018131;28;20419;-71
2021/09/07 02:38:09;;;;;;;28.83;19.13;;;;;;;;;;5032733;28;20434;-72
2021/09/07 02:40:35;;;;;;;26.13;20.67;;;;;;;;;;5037490;28;20413;-74
2021/09/07 02:43:01;;;;;;;26.27;20.57;;;;;;;;;;5030385;28;20893;-72
2021/09/07 02:45:27;;;;;;;26.83;21.30;;;;;;;;;;5013155;28;20448;-72
2021/09/07 02:47:53;;;;;;;26.37;20.03;;;;;;;;;;5012748;28;20435;-72
2021/09/07 02:50:20;;;;;;;28.67;20.50;;;;;;;;;;5013365;28;20455;-70
2021/09/07 02:52:46;;;;;;;29.63;22.47;;;;;;;;;;5013411;28;20416;-74
2021/09/07 02:55:12;;;;;;;27.17;22.40;;;;;;;;;;5012859;28;20450;-74
2021/09/07 02:57:38;;;;;;;29.63;23.10;;;;;;;;;;5012590;28;20472;-73
2021/09/07 03:00:05;;;;;;;27.90;21.77;;;;;;;;;;5013189;28;20416;-70
2021/09/07 03:02:31;;;;;;;29.93;22.80;;;;;;;;;;5013115;28;20416;-72
2021/09/07 03:04:57;;;;;;;28.70;22.37;;;;;;;;;;5011679;28;20921;-73
2021/09/07 03:07:23;;;;;;;32.37;22.43;;;;;;;;;;5012495;28;20444;-72
2021/09/07 03:09:49;;;;;;;32.23;24.90;;;;;;;;;;5012618;28;20466;-72
2021/09/07 03:12:15;;;;;;;35.10;25.20;;;;;;;;;;5013079;28;20417;-73
2021/09/07 03:14:41;;;;;;;31.10;22.67;;;;;;;;;;5015905;28;20422;-72
2021/09/07 03:17:07;;;;;;;30.10;22.83;;;;;;;;;;5016496;28;20416;-74
2021/09/07 03:19:33;;;;;;;30.93;23.07;;;;;;;;;;5016465;28;20443;-72
2021/09/07 03:21:59;;;;;;;32.90;25.17;;;;;;;;;;5017013;28;20418;-73
2021/09/07 03:24:25;;;;;;;33.53;24.17;;;;;;;;;;5016918;28;20445;-74
2021/09/07 03:26:51;;;;;;;29.70;23.80;;;;;;;;;;5016357;28;20534;-72
2021/09/07 03:29:17;;;;;;;34.23;24.90;;;;;;;;;;5018539;28;20519;-74
2021/09/07 03:31:43;;;;;;;29.53;19.90;;;;;;;;;;5016632;28;20416;-74
2021/09/07 03:34:09;;;;;;;25.80;18.83;;;;;;;;;;5016533;28;20422;-74
2021/09/07 03:36:35;;;;;;;26.60;22.40;;;;;;;;;;5026655;28;20501;-72
2021/09/07 03:39:01;;;;;;;29.97;23.17;;;;;;;;;;5036054;28;20827;-72
2021/09/07 03:41:27;;;;;;;25.83;21.97;;;;;;;;;;5047687;28;20421;-73
2021/09/07 03:43:54;;;;;;;28.60;21.33;;;;;;;;;;5017637;28;20441;-70
2021/09/07 03:46:20;;;;;;;30.73;21.30;;;;;;;;;;5016205;28;20782;-75
2021/09/07 03:48:46;;;;;;;25.70;20.70;;;;;;;;;;5015730;28;20538;-74
2021/09/07 03:51:12;;;;;;;28.40;21.53;;;;;;;;;;5016190;28;20421;-71
2021/09/07 03:53:38;;;;;;;30.20;21.30;;;;;;;;;;5016370;28;20927;-74
2021/09/07 03:56:04;;;;;;;27.77;22.20;;;;;;;;;;5015771;28;20812;-72
2021/09/07 03:58:30;;;;;;;26.60;20.87;;;;;;;;;;5015730;28;20435;-70
2021/09/07 04:00:56;;;;;;;26.07;20.57;;;;;;;;;;5015927;28;20425;-71
2021/09/07 04:03:22;;;;;;;24.23;20.03;;;;;;;;;;5016039;28;20430;-76
2021/09/07 04:05:49;;;;;;;25.00;20.00;;;;;;;;;;5016104;28;20803;-74
2021/09/07 04:08:15;;;;;;;24.60;20.30;;;;;;;;;;5015408;28;20430;-74
2021/09/07 04:10:41;;;;;;;26.30;20.47;;;;;;;;;;5015928;28;20472;-75
2021/09/07 04:13:07;;;;;;;23.30;20.20;;;;;;;;;;5015795;28;20407;-71
2021/09/07 04:15:34;;;;;;;25.63;19.47;;;;;;;;;;5015914;28;20774;-70
2021/09/07 04:18:00;;;;;;;23.03;19.67;;;;;;;;;;5013856;28;20438;-74
2021/09/07 04:20:26;;;;;;;27.90;21.53;;;;;;;;;;5015625;28;20426;-74
2021/09/07 04:22:52;;;;;;;28.00;21.47;;;;;;;;;;5015801;28;20426;-72
2021/09/07 04:25:18;;;;;;;29.33;20.60;;;;;;;;;;5014781;28;20425;-72
2021/09/07 04:27:44;;;;;;;28.97;22.47;;;;;;;;;;5015289;28;20419;-69
2021/09/07 04:30:10;;;;;;;29.07;22.40;;;;;;;;;;5016039;28;20463;-70
2021/09/07 04:32:37;;;;;;;28.47;21.67;;;;;;;;;;5015211;28;20423;-74
2021/09/07 04:35:04;;;;;;;26.60;21.90;;;;;;;;;;5015437;28;20417;-74
2021/09/07 04:37:30;;;;;;;27.60;22.23;;;;;;;;;;5034804;28;20412;-71
2021/09/07 04:39:56;;;;;;;26.00;22.30;;;;;;;;;;5035171;28;20536;-72
2021/09/07 04:42:22;;;;;;;24.97;21.33;;;;;;;;;;5041078;28;20853;-72
2021/09/07 04:44:48;;;;;;;28.43;21.83;;;;;;;;;;5015199;28;20493;-72
2021/09/07 04:47:14;;;;;;;27.23;20.97;;;;;;;;;;5014637;28;20473;-74
2021/09/07 04:49:40;;;;;;;27.90;22.27;;;;;;;;;;5015216;28;20508;-71
2021/09/07 04:52:07;;;;;;;27.90;21.27;;;;;;;;;;5015224;28;20825;-72
2021/09/07 04:54:32;;;;;;;28.20;22.37;;;;;;;;;;5014719;28;20501;-72
2021/09/07 04:57:00;;;;;;;27.73;22.43;;;;;;;;;;5014475;28;20450;-71
2021/09/07 04:59:26;;;;;;;25.83;21.73;;;;;;;;;;5014974;28;20478;-73
2021/09/07 05:01:52;;;;;;;29.87;22.13;;;;;;;;;;5015071;28;20429;-74
2021/09/07 05:04:18;;;;;;;27.97;21.67;;;;;;;;;;5014983;28;20855;-72
2021/09/07 05:06:44;;;;;;;28.93;20.57;;;;;;;;;;5014366;28;20434;-71
2021/09/07 05:09:10;;;;;;;29.37;20.93;;;;;;;;;;5027025;28;20480;-72
2021/09/07 05:11:36;;;;;;;29.97;21.13;;;;;;;;;;5021506;28;20883;-73
2021/09/07 05:14:02;;;;;;;29.13;21.23;;;;;;;;;;5022146;28;20414;-75
2021/09/07 05:16:28;;;;;;;28.83;22.27;;;;;;;;;;5014225;28;20911;-73
2021/09/07 05:18:54;;;;;;;28.77;22.00;;;;;;;;;;5027764;28;20845;-70
2021/09/07 05:21:20;;;;;;;31.33;22.10;;;;;;;;;;5028572;28;20447;-74
2021/09/07 05:23:46;;;;;;;27.00;21.43;;;;;;;;;;5023999;28;20481;-72
2021/09/07 05:26:12;;;;;;;27.93;21.57;;;;;;;;;;5015199;28;20469;-72
2021/09/07 05:28:38;;;;;;;31.90;24.57;;;;;;;;;;5014160;28;20465;-71
2021/09/07 05:31:04;;;;;;;29.93;23.30;;;;;;;;;;5014188;28;20474;-71
2021/09/07 05:33:30;;;;;;;29.80;23.20;;;;;;;;;;5014808;28;20403;-75
2021/09/07 05:35:56;;;;;;;26.93;22.10;;;;;;;;;;5020950;28;20890;-74
2021/09/07 05:38:22;;;;;;;31.23;22.80;;;;;;;;;;5033884;28;20430;-73
2021/09/07 05:40:50;;;;;;;29.93;22.70;;;;;;;;;;5040120;28;20404;-74
2021/09/07 05:43:16;;;;;;;30.33;22.77;;;;;;;;;;5026173;28;20817;-70
2021/09/07 05:45:42;;;;;;;28.20;22.20;;;;;;;;;;5014507;28;20510;-70
2021/09/07 05:48:08;;;;;;;26.57;19.97;;;;;;;;;;5013690;28;20468;-72
2021/09/07 05:50:34;;;;;;;29.53;21.53;;;;;;;;;;5014125;28;20490;-68
2021/09/07 05:53:01;;;;;;;28.97;19.70;;;;;;;;;;5013860;28;20515;-71
2021/09/07 05:55:27;;;;;;;24.93;20.73;;;;;;;;;;5013969;28;20401;-73
2021/09/07 05:57:54;;;;;;;26.00;19.83;;;;;;;;;;5013425;28;20413;-72
2021/09/07 06:00:21;;;;;;;26.30;18.77;;;;;;;;;;5014711;28;20859;-72
2021/09/07 06:02:48;;;;;;;24.90;20.07;;;;;;;;;;5013786;28;20421;-71
2021/09/07 06:05:14;;;;;;;25.40;18.87;;;;;;;;;;5012785;28;21148;-71
2021/09/07 06:07:40;;;;;;;28.30;19.37;;;;;;;;;;5013359;28;20526;-73
2021/09/07 06:10:07;;;;;;;28.87;19.87;;;;;;;;;;5013868;28;20464;-73
2021/09/07 06:12:33;;;;;;;24.90;19.53;;;;;;;;;;5013662;28;20420;-72
2021/09/07 06:14:59;;;;;;;22.23;17.37;;;;;;;;;;5012188;28;20866;-72
2021/09/07 06:17:26;;;;;;;22.00;15.53;;;;;;;;;;5013170;28;20423;-75
2021/09/07 06:19:52;;;;;;;19.13;15.23;;;;;;;;;;5023915;28;20448;-73
2021/09/07 06:22:18;;;;;;;21.03;17.27;;;;;;;;;;5013490;28;20421;-70
2021/09/07 06:24:44;;;;;;;21.30;16.10;;;;;;;;;;5013448;28;20416;-70
2021/09/07 06:27:10;;;;;;;18.10;16.00;;;;;;;;;;5009395;28;20451;-71
2021/09/07 06:29:36;;;;;;;19.50;14.47;;;;;;;;;;5012098;28;20639;-70
2021/09/07 06:32:02;;;;;;;18.60;14.33;;;;;;;;;;5009858;28;20503;-72
2021/09/07 06:34:29;;;;;;;16.83;14.30;;;;;;;;;;5011566;28;21093;-72
2021/09/07 06:36:55;;;;;;;17.00;14.67;;;;;;;;;;5015744;28;20791;-73
2021/09/07 06:39:22;;;;;;;16.80;14.23;;;;;;;;;;5009722;28;20459;-70
2021/09/07 06:41:48;;;;;;;19.00;15.13;;;;;;;;;;5009213;28;20424;-71
2021/09/07 06:44:14;;;;;;;16.83;14.80;;;;;;;;;;5015348;28;20427;-71
2021/09/07 06:46:40;;;;;;;21.53;14.70;;;;;;;;;;5013917;28;20490;-71
2021/09/07 06:49:06;;;;;;;18.73;15.93;;;;;;;;;;5011431;28;20496;-74
2021/09/07 06:51:33;;;;;;;17.27;14.23;;;;;;;;;;5013788;28;20421;-71
2021/09/07 06:53:59;;;;;;;28.10;15.60;;;;;;;;;;5013132;28;20468;-72
2021/09/07 06:56:25;;;;;;;18.57;14.30;;;;;;;;;;5013413;28;20983;-74
2021/09/07 06:58:51;;;;;;;21.50;14.20;;;;;;;;;;5013031;28;20471;-71
2021/09/07 07:01:17;;;;;;;16.13;13.67;;;;;;;;;;5013411;28;20471;-71
2021/09/07 07:03:43;;;;;;;15.60;13.17;;;;;;;;;;5021406;28;20809;-73
2021/09/07 07:06:09;;;;;;;16.73;12.97;;;;;;;;;;5017828;28;20491;-70
2021/09/07 07:08:35;;;;;;;16.10;13.53;;;;;;;;;;5013005;28;20437;-72
2021/09/07 07:11:01;;;;;;;16.47;12.90;;;;;;;;;;5015555;28;20555;-73
2021/09/07 07:13:27;;;;;;;13.97;12.43;;;;;;;;;;5013218;28;20425;-73
2021/09/07 07:15:53;;;;;;;15.33;13.73;;;;;;;;;;5013060;28;20418;-72
2021/09/07 07:18:19;;;;;;;16.27;13.00;;;;;;;;;;5012775;28;20433;-74
2021/09/07 07:20:45;;;;;;;14.20;12.77;;;;;;;;;;5028466;28;20438;-74
2021/09/07 07:23:11;;;;;;;13.43;11.67;;;;;;;;;;5012904;28;20782;-71
2021/09/07 07:25:37;;;;;;;11.20;10.00;;;;;;;;;;5012831;28;20771;-74
2021/09/07 07:28:03;;;;;;;13.80;9.50;;;;;;;;;;5012735;28;20927;-72
2021/09/07 07:30:31;;;;;;;13.67;11.10;;;;;;;;;;5014371;28;20468;-73
2021/09/07 07:32:57;;;;;;;12.40;10.43;;;;;;;;;;5012680;28;20768;-74
2021/09/07 07:35:23;;;;;;;12.30;8.50;;;;;;;;;;5015114;28;20417;-70
2021/09/07 07:37:49;;;;;;;10.57;9.37;;;;;;;;;;5031901;28;20431;-73
2021/09/07 07:40:16;;;;;;;10.80;9.30;;;;;;;;;;5032310;28;20420;-71
2021/09/07 07:42:42;;;;;;;9.90;8.90;;;;;;;;;;5032282;28;20420;-72
2021/09/07 07:45:08;;;;;;;12.30;8.67;;;;;;;;;;5032292;28;20427;-71
2021/09/07 07:47:34;;;;;;;11.23;9.60;;;;;;;;;;5031905;28;21111;-72
2021/09/07 07:50:00;;;;;;;10.80;9.07;;;;;;;;;;5032059;28;20471;-74
2021/09/07 07:52:26;;;;;;;10.60;9.50;;;;;;;;;;5032249;28;20420;-75
2021/09/07 07:54:52;;;;;;;9.17;8.17;;;;;;;;;;5031593;28;20747;-74
2021/09/07 07:57:19;;;;;;;8.43;7.60;;;;;;;;;;5012414;28;20483;-71
2021/09/07 07:59:45;;;;;;;8.13;7.33;;;;;;;;;;5011801;28;20440;-71
2021/09/07 08:02:11;;;;;;;7.80;6.90;;;;;;;;;;5012649;28;20440;-71
2021/09/07 08:04:39;;;;;;;8.40;6.60;;;;;;;;;;5021969;28;20516;-71
2021/09/07 08:07:05;;;;;;;9.90;6.73;;;;;;;;;;5012141;28;20444;-72
2021/09/07 08:09:31;;;;;;;6.77;6.00;;;;;;;;;;5011811;28;20473;-71
2021/09/07 08:11:58;;;;;;;8.70;6.27;;;;;;;;;;5012304;28;20413;-73
2021/09/07 08:14:24;;;;;;;7.40;6.23;;;;;;;;;;5012023;28;20504;-73
2021/09/07 08:16:51;;;;;;;7.47;6.00;;;;;;;;;;5014892;28;20785;-70
2021/09/07 08:19:17;;;;;;;6.40;4.90;;;;;;;;;;5011984;28;20434;-72
2021/09/07 08:21:43;;;;;;;6.23;5.63;;;;;;;;;;5019870;28;20425;-74
2021/09/07 08:24:09;;;;;;;5.33;4.57;;;;;;;;;;5012103;28;20432;-73
2021/09/07 08:26:35;;;;;;;5.17;4.67;;;;;;;;;;5011621;28;20457;-71
2021/09/07 08:29:01;;;;;;;6.10;5.23;;;;;;;;;;5011687;28;20471;-71
2021/09/07 08:31:27;;;;;;;5.90;4.37;;;;;;;;;;5011928;28;20463;-74
2021/09/07 08:33:53;;;;;;;5.50;5.03;;;;;;;;;;5011725;28;20422;-73
2021/09/07 08:36:19;;;;;;;5.80;5.30;;;;;;;;;;5021699;28;20424;-71
2021/09/07 08:38:45;;;;;;;6.03;5.30;;;;;;;;;;5030750;28;20472;-74
2021/09/07 08:41:15;;;;;;;6.30;4.90;;;;;;;;;;5031488;28;20832;-76
2021/09/07 08:43:48;;;;;;;6.30;5.17;;;;;;;;;;5024267;28;20451;-73
2021/09/07 08:46:14;;;;;;;6.60;4.40;;;;;;;;;;5011628;28;20891;-74
2021/09/07 08:48:40;;;;;;;5.20;4.70;;;;;;;;;;5011034;28;20488;-75
2021/09/07 08:51:06;;;;;;;4.90;4.10;;;;;;;;;;5011346;28;20464;-73
2021/09/07 08:53:32;;;;;;;5.07;4.27;;;;;;;;;;5013507;28;20435;-74
2021/09/07 08:55:58;;;;;;;4.03;3.63;;;;;;;;;;5011303;28;20420;-73
2021/09/07 08:58:24;;;;;;;5.53;3.40;;;;;;;;;;5010867;28;20449;-72
2021/09/07 09:00:50;;;;;;;4.93;3.43;;;;;;;;;;5011515;28;20420;-73
2021/09/07 09:03:17;;;;;;;2.77;2.07;;;;;;;;;;5011626;28;20898;-73
2021/09/07 09:05:44;;;;;;;3.07;2.77;;;;;;;;;;5010996;28;20484;-73
2021/09/07 09:08:11;;;;;;;4.23;3.40;;;;;;;;;;5011103;28;20845;-72
2021/09/07 09:10:37;;;;;;;5.40;4.30;;;;;;;;;;5011116;28;20467;-73
2021/09/07 09:13:07;;;;;;;3.77;3.30;;;;;;;;;;5010869;28;20420;-73
2021/09/07 09:15:33;;;;;;;3.83;3.43;;;;;;;;;;5011207;28;21058;-72
2021/09/07 09:18:06;;;;;;;5.40;4.13;;;;;;;;;;5010539;28;20429;-71
2021/09/07 09:20:33;;;;;;;4.93;3.43;;;;;;;;;;5018690;28;20924;-71
2021/09/07 09:22:59;;;;;;;4.30;3.33;;;;;;;;;;5011216;28;20824;-70
2021/09/07 09:25:25;;;;;;;6.20;3.87;;;;;;;;;;5010928;28;20429;-70
2021/09/07 09:27:57;;;;;;;5.27;3.53;;;;;;;;;;5011028;28;20426;-72
2021/09/07 09:30:26;;;;;;;3.80;3.37;;;;;;;;;;5022352;28;20471;-69
2021/09/07 09:32:53;;;;;;;6.30;3.63;;;;;;;;;;5011532;28;20413;-70
2021/09/07 09:35:19;;;;;;;4.70;4.17;;;;;;;;;;5012315;28;20421;-74
2021/09/07 09:37:54;;;;;;;4.10;3.70;;;;;;;;;;5010331;28;20425;-72
2021/09/07 09:40:21;;;;;;;5.07;4.07;;;;;;;;;;5010329;28;20429;-74
2021/09/07 09:42:50;;;;;;;4.77;4.37;;;;;;;;;;5010635;28;20504;-70
2021/09/07 09:45:17;;;;;;;5.17;4.30;;;;;;;;;;5010272;28;20413;-72
2021/09/07 09:47:44;;;;;;;3.70;3.40;;;;;;;;;;5010224;28;20503;-75
2021/09/07 09:50:11;;;;;;;3.97;3.67;;;;;;;;;;5010204;28;20476;-74
2021/09/07 09:52:39;;;;;;;4.33;3.93;;;;;;;;;;5010467;28;20445;-74
2021/09/07 09:55:06;;;;;;;4.20;3.80;;;;;;;;;;5021745;28;20455;-73
2021/09/07 09:57:35;;;;;;;4.10;3.70;;;;;;;;;;5020846;28;20421;-70
2021/09/07 10:00:02;;;;;;;4.10;3.70;;;;;;;;;;5010119;28;20444;-74
2021/09/07 10:02:30;;;;;;;4.27;3.87;;;;;;;;;;5010102;28;20910;-74
2021/09/07 10:04:56;;;;;;;5.20;4.70;;;;;;;;;;5010002;28;20490;-74
2021/09/07 10:07:23;;;;;;;4.63;4.20;;;;;;;;;;5021539;28;20878;-73
2021/09/07 10:09:49;;;;;;;4.80;4.30;;;;;;;;;;5028255;28;20511;-74
2021/09/07 10:12:23;;;;;;;6.00;4.50;;;;;;;;;;5009832;28;20415;-72
2021/09/07 10:14:52;;;;;;;4.70;4.30;;;;;;;;;;5021618;28;20569;-74
2021/09/07 10:17:28;;;;;;;5.57;4.97;;;;;;;;;;5011995;28;20467;-72
2021/09/07 10:20:37;;;;;;;4.60;4.20;;;;;;;;;;5012260;28;20467;-73
2021/09/07 10:25:50;;;;;;;5.13;4.73;;;;;;;;;;5000336;28;20496;-70
2021/09/07 10:28:36;;;;;;;5.33;4.30;;;;;;;;;;5009320;28;20969;-72
2021/09/07 10:31:08;;;;;;;6.23;4.27;;;;;;;;;;5009424;28;20469;-70
2021/09/07 10:33:36;;;;;;;4.90;4.50;;;;;;;;;;5009682;28;20413;-74
2021/09/07 10:36:11;;;;;;;4.70;4.30;;;;;;;;;;5009652;28;20764;-73
2021/09/07 10:38:38;;;;;;;5.00;4.50;;;;;;;;;;5009033;28;21321;-70
2021/09/07 10:41:05;;;;;;;9.13;4.80;;;;;;;;;;5009583;28;20421;-72
2021/09/07 10:43:47;;;;;;;5.07;4.67;;;;;;;;;;5009444;28;20425;-71
2021/09/07 10:46:13;;;;;;;5.67;4.80;;;;;;;;;;5009714;28;20457;-70
2021/09/07 10:48:39;;;;;;;6.73;5.20;;;;;;;;;;5009076;28;20448;-74
2021/09/07 10:51:05;;;;;;;5.13;4.73;;;;;;;;;;5009575;28;20464;-74
2021/09/07 10:53:32;;;;;;;5.13;4.50;;;;;;;;;;5009574;28;20428;-72
2021/09/07 10:56:17;;;;;;;4.83;4.40;;;;;;;;;;5016283;28;20859;-72
2021/09/07 10:58:43;;;;;;;5.10;4.70;;;;;;;;;;5008970;28;20437;-71
2021/09/07 11:01:28;;;;;;;5.20;4.70;;;;;;;;;;5009488;28;20748;-70
2021/09/07 11:04:13;;;;;;;4.43;4.13;;;;;;;;;;5009591;28;20417;-70
2021/09/07 11:06:39;;;;;;;4.50;4.20;;;;;;;;;;5008916;28;20437;-70
2021/09/07 11:09:25;;;;;;;4.40;4.00;;;;;;;;;;5009369;28;20441;-71
2021/09/07 11:11:51;;;;;;;4.27;3.87;;;;;;;;;;5009426;28;20413;-72
2021/09/07 11:14:17;;;;;;;4.37;3.97;;;;;;;;;;5010235;28;20417;-70
2021/09/07 11:16:52;;;;;;;7.70;4.70;;;;;;;;;;5028632;28;20417;-74
2021/09/07 11:19:18;;;;;;;5.00;4.60;;;;;;;;;;5029012;28;20520;-71
2021/09/07 11:21:44;;;;;;;6.30;5.80;;;;;;;;;;5020029;28;20516;-72
2021/09/07 11:24:18;;;;;;;7.07;6.33;;;;;;;;;;5009153;28;20449;-73
2021/09/07 11:26:46;;;;;;;5.83;5.33;;;;;;;;;;5008654;28;20467;-70
2021/09/07 11:29:12;;;;;;;5.20;4.80;;;;;;;;;;5008976;28;20429;-70
2021/09/07 11:31:38;;;;;;;5.27;4.77;;;;;;;;;;5009299;28;20429;-69
2021/09/07 11:34:14;;;;;;;5.37;4.93;;;;;;;;;;5009734;28;20417;-70
2021/09/07 11:36:40;;;;;;;5.43;4.93;;;;;;;;;;5015949;28;20470;-73
2021/09/07 11:39:19;;;;;;;4.43;4.00;;;;;;;;;;5014617;28;20437;-71
2021/09/07 11:41:45;;;;;;;4.90;4.40;;;;;;;;;;5012607;28;20420;-70
2021/09/07 11:44:11;;;;;;;4.90;4.50;;;;;;;;;;5011169;28;20996;-74
2021/09/07 11:46:38;;;;;;;4.73;4.03;;;;;;;;;;5010805;28;20429;-72
2021/09/07 11:49:08;;;;;;;7.53;7.00;;;;;;;;;;5012419;28;20469;-72
2021/09/07 11:51:35;;;;;;;5.23;4.73;;;;;;;;;;5012506;28;20433;-74
2021/09/07 11:54:03;;;;;;;4.53;4.03;;;;;;;;;;5012613;28;20499;-73
2021/09/07 11:56:30;;;;;;;4.60;4.17;;;;;;;;;;5019023;28;20417;-69
2021/09/07 11:59:09;;;;;;;4.57;4.17;;;;;;;;;;5011945;28;20433;-72
2021/09/07 12:01:39;;;;;;;5.53;5.00;;;;;;;;;;5018218;28;20467;-71
2021/09/07 12:04:06;;;;;;;5.30;4.83;;;;;;;;;;5031483;28;20919;-69
2021/09/07 12:06:32;;;;;;;7.00;5.53;;;;;;;;;;5011967;28;20520;-71
2021/09/07 12:09:09;;;;;;;5.03;4.73;;;;;;;;;;5011692;28;20845;-70
2021/09/07 12:11:35;;;;;;;6.60;6.00;;;;;;;;;;5011940;28;20409;-71
2021/09/07 12:14:02;;;;;;;8.00;5.23;;;;;;;;;;5012150;28;20396;-73
2021/09/07 12:16:28;;;;;;;5.47;5.07;;;;;;;;;;5030623;28;20412;-72
2021/09/07 12:18:54;;;;;;;5.90;5.40;;;;;;;;;;5030672;28;20777;-72
2021/09/07 12:21:25;;;;;;;7.43;5.60;;;;;;;;;;5020146;28;20464;-73
2021/09/07 12:23:52;;;;;;;6.20;5.70;;;;;;;;;;5011928;28;20906;-73
2021/09/07 12:26:18;;;;;;;9.10;5.37;;;;;;;;;;5024108;28;20432;-73
2021/09/07 12:28:45;;;;;;;5.40;4.90;;;;;;;;;;5013644;28;20441;-72
2021/09/07 12:31:15;;;;;;;6.53;6.00;;;;;;;;;;5031355;28;20498;-72
2021/09/07 12:33:42;;;;;;;6.40;5.80;;;;;;;;;;5031472;28;20477;-73
2021/09/07 12:36:09;;;;;;;5.10;4.70;;;;;;;;;;5031323;28;20435;-73
2021/09/07 12:38:35;;;;;;;5.47;4.97;;;;;;;;;;5031199;28;20786;-73
2021/09/07 12:41:11;;;;;;;6.10;5.60;;;;;;;;;;5031010;28;20913;-73
2021/09/07 12:43:40;;;;;;;5.17;4.77;;;;;;;;;;5031294;28;20448;-73
2021/09/07 12:46:08;;;;;;;6.20;5.70;;;;;;;;;;5030270;28;20416;-73
2021/09/07 12:48:36;;;;;;;5.33;4.93;;;;;;;;;;5030556;28;20456;-73
2021/09/07 12:51:03;;;;;;;4.97;4.60;;;;;;;;;;5030613;28;20492;-71
2021/09/07 12:53:52;;;;;;;5.30;4.90;;;;;;;;;;5031052;28;20416;-73
2021/09/07 12:56:16;;;;;;;6.70;6.10;;;;;;;;;;5020712;28;20472;-73
2021/09/07 12:58:51;;;;;;;6.50;5.70;;;;;;;;;;5011553;28;20537;-74
2021/09/07 13:01:17;;;;;;;6.30;5.70;;;;;;;;;;5011080;28;20421;-73
2021/09/07 13:03:43;;;;;;;6.40;5.80;;;;;;;;;;5011108;28;20413;-74
2021/09/07 13:06:09;;;;;;;5.90;5.33;;;;;;;;;;5012448;28;20774;-73
2021/09/07 13:08:36;;;;;;;6.30;5.70;;;;;;;;;;5030566;28;20484;-73
2021/09/07 13:11:02;;;;;;;5.07;4.63;;;;;;;;;;5031008;28;20863;-74
2021/09/07 13:13:28;;;;;;;5.90;5.30;;;;;;;;;;5029470;28;20417;-73
2021/09/07 13:15:55;;;;;;;6.00;5.47;;;;;;;;;;5024915;28;20408;-73
2021/09/07 13:18:21;;;;;;;7.70;6.10;;;;;;;;;;5023499;28;20429;-73
2021/09/07 13:20:47;;;;;;;6.17;5.67;;;;;;;;;;5020572;28;20491;-73
2021/09/07 13:23:13;;;;;;;5.70;5.20;;;;;;;;;;5011164;28;20500;-74
2021/09/07 13:25:39;;;;;;;6.80;6.10;;;;;;;;;;5011003;28;20421;-74
2021/09/07 13:28:05;;;;;;;6.53;5.93;;;;;;;;;;5017333;28;20443;-74
2021/09/07 13:30:32;;;;;;;6.00;5.60;;;;;;;;;;5028920;28;21052;-74
2021/09/07 13:32:58;;;;;;;6.53;6.03;;;;;;;;;;5011020;28;20432;-71
2021/09/07 13:35:24;;;;;;;6.90;6.20;;;;;;;;;;5010766;28;20503;-74
2021/09/07 13:37:50;;;;;;;6.50;5.90;;;;;;;;;;5016496;28;20433;-73
2021/09/07 13:40:16;;;;;;;7.13;6.10;;;;;;;;;;5026514;28;20429;-73
2021/09/07 13:42:42;;;;;;;5.73;5.10;;;;;;;;;;5012951;28;20429;-73
2021/09/07 13:45:08;;;;;;;6.40;5.80;;;;;;;;;;5030285;28;20865;-72
2021/09/07 13:47:34;;;;;;;6.80;6.13;;;;;;;;;;5029847;28;20915;-73
2021/09/07 13:50:00;;;;;;;7.40;5.70;;;;;;;;;;5029931;28;20486;-73
2021/09/07 13:52:26;;;;;;;6.17;5.63;;;;;;;;;;5030199;28;20777;-74
2021/09/07 13:54:52;;;;;;;5.80;4.73;;;;;;;;;;5027407;28;20420;-74
2021/09/07 13:57:18;;;;;;;6.27;5.77;;;;;;;;;;5016990;28;20424;-73
2021/09/07 13:59:44;;;;;;;6.40;5.80;;;;;;;;;;5029855;28;20522;-74
2021/09/07 14:02:10;;;;;;;6.77;6.07;;;;;;;;;;5030123;28;20508;-74
2021/09/07 14:04:36;;;;;;;6.10;5.60;;;;;;;;;;5016599;28;20806;-74
2021/09/07 14:07:03;;;;;;;9.20;5.93;;;;;;;;;;5022705;28;20792;-74
2021/09/07 14:09:29;;;;;;;7.30;6.70;;;;;;;;;;5009909;28;20516;-73
2021/09/07 14:11:54;;;;;;;6.40;5.80;;;;;;;;;;5009988;28;20441;-73
2021/09/07 14:14:21;;;;;;;7.20;6.33;;;;;;;;;;5017637;28;20500;-73
2021/09/07 14:16:47;;;;;;;7.93;6.07;;;;;;;;;;5024856;28;20409;-73
2021/09/07 14:19:13;;;;;;;6.67;6.07;;;;;;;;;;5019371;28;20845;-74
2021/09/07 14:21:39;;;;;;;6.40;5.83;;;;;;;;;;5014509;28;20435;-73
2021/09/07 14:24:05;;;;;;;5.77;5.27;;;;;;;;;;5015662;28;20418;-73
2021/09/07 14:26:31;;;;;;;7.07;6.33;;;;;;;;;;5009950;28;20429;-74
2021/09/07 14:28:57;;;;;;;7.07;6.37;;;;;;;;;;5009913;28;20985;-74
2021/09/07 14:31:23;;;;;;;7.53;5.67;;;;;;;;;;5012331;28;21270;-74